sensor_id;sensor_type;location;lat;lon;timestamp;P1;durP1;ratioP1;P2;durP2;ratioP2
2638;SDS011;1329;51.384;7.122;2022-12-18T00:00:09;6.10;;;4.40;;
2638;SDS011;1329;51.384;7.122;2022-12-18T00:02:41;7.17;;;5.30;;
2638;SDS011;1329;51.384;7.122;2022-12-18T00:05:08;9.67;;;7.27;;
2638;SDS011;1329;51.384;7.122;2022-12-18T00:07:37;7.87;;;6.33;;
2638;SDS011;1329;51.384;7.122;2022-12-18T00:10:04;7.60;;;5.93;;
2638;SDS011;1329;51.384;7.122;2022-12-18T00:12:33;7.00;;;5.60;;
2638;SDS011;1329;51.384;7.122;2022-12-18T00:15:03;6.30;;;4.93;;
2638;SDS011;1329;51.384;7.122;2022-12-18T00:17:34;6.43;;;4.90;;
2638;SDS011;1329;51.384;7.122;2022-12-18T00:20:01;6.53;;;4.97;;
2638;SDS011;1329;51.384;7.122;2022-12-18T00:22:29;5.83;;;4.77;;
2638;SDS011;1329;51.384;7.122;2022-12-18T00:25:00;6.50;;;4.90;;
2638;SDS011;1329;51.384;7.122;2022-12-18T00:27:27;6.67;;;5.23;;
2638;SDS011;1329;51.384;7.122;2022-12-18T00:29:54;5.97;;;4.70;;
2638;SDS011;1329;51.384;7.122;2022-12-18T00:32:22;7.20;;;5.03;;
2638;SDS011;1329;51.384;7.122;2022-12-18T00:34:49;5.97;;;5.00;;
2638;SDS011;1329;51.384;7.122;2022-12-18T00:37:16;6.30;;;4.97;;
2638;SDS011;1329;51.384;7.122;2022-12-18T00:39:43;6.40;;;5.13;;
2638;SDS011;1329;51.384;7.122;2022-12-18T00:42:12;6.97;;;5.40;;
2638;SDS011;1329;51.384;7.122;2022-12-18T00:45:05;6.63;;;5.50;;
2638;SDS011;1329;51.384;7.122;2022-12-18T00:47:33;7.37;;;5.00;;
2638;SDS011;1329;51.384;7.122;2022-12-18T00:50:01;7.13;;;5.27;;
2638;SDS011;1329;51.384;7.122;2022-12-18T00:52:29;6.90;;;4.87;;
2638;SDS011;1329;51.384;7.122;2022-12-18T00:54:56;4.97;;;4.40;;
2638;SDS011;1329;51.384;7.122;2022-12-18T00:57:24;7.17;;;5.13;;
2638;SDS011;1329;51.384;7.122;2022-12-18T00:59:51;6.03;;;5.20;;
2638;SDS011;1329;51.384;7.122;2022-12-18T01:02:19;5.53;;;4.93;;
2638;SDS011;1329;51.384;7.122;2022-12-18T01:04:46;6.57;;;5.10;;
2638;SDS011;1329;51.384;7.122;2022-12-18T01:07:14;5.27;;;4.57;;
2638;SDS011;1329;51.384;7.122;2022-12-18T01:09:41;5.20;;;4.47;;
2638;SDS011;1329;51.384;7.122;2022-12-18T01:12:08;6.43;;;4.77;;
2638;SDS011;1329;51.384;7.122;2022-12-18T01:14:37;6.77;;;4.90;;
2638;SDS011;1329;51.384;7.122;2022-12-18T01:17:05;5.47;;;4.87;;
2638;SDS011;1329;51.384;7.122;2022-12-18T01:19:32;5.60;;;4.87;;
2638;SDS011;1329;51.384;7.122;2022-12-18T01:22:00;5.90;;;4.90;;
2638;SDS011;1329;51.384;7.122;2022-12-18T01:24:27;6.37;;;5.20;;
2638;SDS011;1329;51.384;7.122;2022-12-18T01:26:55;6.33;;;4.93;;
2638;SDS011;1329;51.384;7.122;2022-12-18T01:29:23;5.87;;;4.83;;
2638;SDS011;1329;51.384;7.122;2022-12-18T01:31:54;5.40;;;4.83;;
2638;SDS011;1329;51.384;7.122;2022-12-18T01:34:21;5.83;;;4.67;;
2638;SDS011;1329;51.384;7.122;2022-12-18T01:36:49;6.77;;;5.20;;
2638;SDS011;1329;51.384;7.122;2022-12-18T01:39:28;6.57;;;5.27;;
2638;SDS011;1329;51.384;7.122;2022-12-18T01:41:56;6.00;;;5.00;;
2638;SDS011;1329;51.384;7.122;2022-12-18T01:47:33;5.47;;;4.53;;
2638;SDS011;1329;51.384;7.122;2022-12-18T01:50:07;5.63;;;4.90;;
2638;SDS011;1329;51.384;7.122;2022-12-18T01:52:39;6.33;;;4.77;;
2638;SDS011;1329;51.384;7.122;2022-12-18T01:55:10;6.97;;;5.37;;
2638;SDS011;1329;51.384;7.122;2022-12-18T01:57:39;5.77;;;4.97;;
2638;SDS011;1329;51.384;7.122;2022-12-18T02:00:09;5.30;;;4.80;;
2638;SDS011;1329;51.384;7.122;2022-12-18T02:02:44;5.93;;;4.80;;
2638;SDS011;1329;51.384;7.122;2022-12-18T02:05:13;5.97;;;5.00;;
2638;SDS011;1329;51.384;7.122;2022-12-18T02:07:47;5.87;;;4.77;;
2638;SDS011;1329;51.384;7.122;2022-12-18T02:10:26;5.73;;;5.13;;
2638;SDS011;1329;51.384;7.122;2022-12-18T02:13:00;6.80;;;4.87;;
2638;SDS011;1329;51.384;7.122;2022-12-18T02:15:36;6.20;;;4.83;;
2638;SDS011;1329;51.384;7.122;2022-12-18T02:18:11;6.10;;;4.90;;
2638;SDS011;1329;51.384;7.122;2022-12-18T02:20:45;5.90;;;5.27;;
2638;SDS011;1329;51.384;7.122;2022-12-18T02:23:23;7.60;;;5.73;;
2638;SDS011;1329;51.384;7.122;2022-12-18T02:26:14;6.43;;;5.23;;
2638;SDS011;1329;51.384;7.122;2022-12-18T02:28:45;6.20;;;5.27;;
2638;SDS011;1329;51.384;7.122;2022-12-18T02:31:16;6.00;;;5.40;;
2638;SDS011;1329;51.384;7.122;2022-12-18T02:33:49;6.37;;;5.20;;
2638;SDS011;1329;51.384;7.122;2022-12-18T02:36:21;6.60;;;5.30;;
2638;SDS011;1329;51.384;7.122;2022-12-18T02:38:50;6.80;;;5.50;;
2638;SDS011;1329;51.384;7.122;2022-12-18T02:41:21;6.00;;;5.37;;
2638;SDS011;1329;51.384;7.122;2022-12-18T02:43:49;7.27;;;5.67;;
2638;SDS011;1329;51.384;7.122;2022-12-18T02:46:28;7.17;;;5.73;;
2638;SDS011;1329;51.384;7.122;2022-12-18T02:49:01;6.43;;;5.63;;
2638;SDS011;1329;51.384;7.122;2022-12-18T02:51:42;6.90;;;5.53;;
2638;SDS011;1329;51.384;7.122;2022-12-18T02:54:19;7.10;;;5.60;;
2638;SDS011;1329;51.384;7.122;2022-12-18T02:57:00;6.87;;;5.83;;
2638;SDS011;1329;51.384;7.122;2022-12-18T02:59:39;6.30;;;5.33;;
2638;SDS011;1329;51.384;7.122;2022-12-18T03:02:17;6.50;;;4.83;;
2638;SDS011;1329;51.384;7.122;2022-12-18T03:04:50;6.37;;;5.77;;
2638;SDS011;1329;51.384;7.122;2022-12-18T03:07:27;8.33;;;5.57;;
2638;SDS011;1329;51.384;7.122;2022-12-18T03:10:02;6.70;;;5.20;;
2638;SDS011;1329;51.384;7.122;2022-12-18T03:12:32;5.67;;;5.07;;
2638;SDS011;1329;51.384;7.122;2022-12-18T03:15:03;6.57;;;5.67;;
2638;SDS011;1329;51.384;7.122;2022-12-18T03:17:35;5.73;;;5.10;;
2638;SDS011;1329;51.384;7.122;2022-12-18T03:20:09;5.73;;;4.77;;
2638;SDS011;1329;51.384;7.122;2022-12-18T03:22:42;5.97;;;4.60;;
2638;SDS011;1329;51.384;7.122;2022-12-18T03:25:17;6.20;;;4.77;;
2638;SDS011;1329;51.384;7.122;2022-12-18T03:27:47;5.03;;;4.53;;
2638;SDS011;1329;51.384;7.122;2022-12-18T03:30:18;5.60;;;5.00;;
2638;SDS011;1329;51.384;7.122;2022-12-18T03:32:47;5.40;;;4.77;;
2638;SDS011;1329;51.384;7.122;2022-12-18T03:35:19;5.93;;;4.90;;
2638;SDS011;1329;51.384;7.122;2022-12-18T03:37:53;6.33;;;5.00;;
2638;SDS011;1329;51.384;7.122;2022-12-18T03:40:23;6.00;;;5.40;;
2638;SDS011;1329;51.384;7.122;2022-12-18T03:43:00;6.37;;;4.90;;
2638;SDS011;1329;51.384;7.122;2022-12-18T03:45:34;5.80;;;4.70;;
2638;SDS011;1329;51.384;7.122;2022-12-18T03:48:05;6.17;;;5.07;;
2638;SDS011;1329;51.384;7.122;2022-12-18T03:50:40;6.53;;;4.90;;
2638;SDS011;1329;51.384;7.122;2022-12-18T03:53:18;7.37;;;4.90;;
2638;SDS011;1329;51.384;7.122;2022-12-18T03:55:55;6.03;;;4.70;;
2638;SDS011;1329;51.384;7.122;2022-12-18T03:58:25;6.57;;;4.50;;
2638;SDS011;1329;51.384;7.122;2022-12-18T04:00:56;5.50;;;4.63;;
2638;SDS011;1329;51.384;7.122;2022-12-18T04:03:26;5.23;;;4.60;;
2638;SDS011;1329;51.384;7.122;2022-12-18T04:05:59;5.47;;;4.83;;
2638;SDS011;1329;51.384;7.122;2022-12-18T04:08:28;6.67;;;4.87;;
2638;SDS011;1329;51.384;7.122;2022-12-18T04:10:56;5.43;;;4.60;;
2638;SDS011;1329;51.384;7.122;2022-12-18T04:13:24;5.70;;;4.57;;
2638;SDS011;1329;51.384;7.122;2022-12-18T04:15:54;5.73;;;4.80;;
2638;SDS011;1329;51.384;7.122;2022-12-18T04:18:22;5.27;;;4.60;;
2638;SDS011;1329;51.384;7.122;2022-12-18T04:20:49;5.53;;;4.77;;
2638;SDS011;1329;51.384;7.122;2022-12-18T04:23:16;5.27;;;4.47;;
2638;SDS011;1329;51.384;7.122;2022-12-18T04:25:44;4.80;;;4.33;;
2638;SDS011;1329;51.384;7.122;2022-12-18T04:28:20;6.00;;;5.03;;
2638;SDS011;1329;51.384;7.122;2022-12-18T04:30:50;4.70;;;4.27;;
2638;SDS011;1329;51.384;7.122;2022-12-18T04:33:20;6.27;;;4.40;;
2638;SDS011;1329;51.384;7.122;2022-12-18T04:35:47;4.93;;;4.13;;
2638;SDS011;1329;51.384;7.122;2022-12-18T04:38:15;5.33;;;4.67;;
2638;SDS011;1329;51.384;7.122;2022-12-18T04:40:42;5.23;;;4.40;;
2638;SDS011;1329;51.384;7.122;2022-12-18T04:43:10;4.30;;;3.90;;
2638;SDS011;1329;51.384;7.122;2022-12-18T04:45:37;5.40;;;4.10;;
2638;SDS011;1329;51.384;7.122;2022-12-18T04:48:06;5.23;;;4.37;;
2638;SDS011;1329;51.384;7.122;2022-12-18T04:50:33;5.33;;;4.50;;
2638;SDS011;1329;51.384;7.122;2022-12-18T04:53:00;4.77;;;3.87;;
2638;SDS011;1329;51.384;7.122;2022-12-18T04:55:28;4.63;;;3.87;;
2638;SDS011;1329;51.384;7.122;2022-12-18T04:57:55;5.47;;;4.13;;
2638;SDS011;1329;51.384;7.122;2022-12-18T05:00:22;4.70;;;3.90;;
2638;SDS011;1329;51.384;7.122;2022-12-18T05:02:49;5.60;;;3.80;;
2638;SDS011;1329;51.384;7.122;2022-12-18T05:05:18;3.63;;;3.33;;
2638;SDS011;1329;51.384;7.122;2022-12-18T05:07:45;5.03;;;3.97;;
2638;SDS011;1329;51.384;7.122;2022-12-18T05:10:12;4.70;;;4.00;;
2638;SDS011;1329;51.384;7.122;2022-12-18T05:12:40;4.47;;;3.90;;
2638;SDS011;1329;51.384;7.122;2022-12-18T05:15:21;4.10;;;3.70;;
2638;SDS011;1329;51.384;7.122;2022-12-18T05:17:48;4.87;;;4.13;;
2638;SDS011;1329;51.384;7.122;2022-12-18T05:20:15;4.60;;;3.93;;
2638;SDS011;1329;51.384;7.122;2022-12-18T05:22:44;3.93;;;3.53;;
2638;SDS011;1329;51.384;7.122;2022-12-18T05:25:12;4.33;;;3.90;;
2638;SDS011;1329;51.384;7.122;2022-12-18T05:27:40;4.10;;;3.30;;
2638;SDS011;1329;51.384;7.122;2022-12-18T05:30:08;4.47;;;3.40;;
2638;SDS011;1329;51.384;7.122;2022-12-18T05:32:36;4.80;;;3.90;;
2638;SDS011;1329;51.384;7.122;2022-12-18T05:35:04;4.53;;;3.53;;
2638;SDS011;1329;51.384;7.122;2022-12-18T05:37:35;4.03;;;3.50;;
2638;SDS011;1329;51.384;7.122;2022-12-18T05:40:02;3.70;;;3.30;;
2638;SDS011;1329;51.384;7.122;2022-12-18T05:42:31;3.80;;;3.37;;
2638;SDS011;1329;51.384;7.122;2022-12-18T05:44:58;3.67;;;3.30;;
2638;SDS011;1329;51.384;7.122;2022-12-18T05:47:26;3.13;;;2.83;;
2638;SDS011;1329;51.384;7.122;2022-12-18T05:49:54;4.53;;;3.60;;
2638;SDS011;1329;51.384;7.122;2022-12-18T05:52:21;4.67;;;3.73;;
2638;SDS011;1329;51.384;7.122;2022-12-18T05:54:50;4.10;;;3.70;;
2638;SDS011;1329;51.384;7.122;2022-12-18T05:57:17;3.83;;;3.30;;
2638;SDS011;1329;51.384;7.122;2022-12-18T05:59:46;3.90;;;3.40;;
2638;SDS011;1329;51.384;7.122;2022-12-18T06:02:14;4.07;;;3.53;;
2638;SDS011;1329;51.384;7.122;2022-12-18T06:04:41;3.83;;;3.40;;
2638;SDS011;1329;51.384;7.122;2022-12-18T06:07:09;4.93;;;3.97;;
2638;SDS011;1329;51.384;7.122;2022-12-18T06:09:38;4.93;;;3.93;;
2638;SDS011;1329;51.384;7.122;2022-12-18T06:12:07;4.93;;;4.50;;
2638;SDS011;1329;51.384;7.122;2022-12-18T06:14:35;4.07;;;3.57;;
2638;SDS011;1329;51.384;7.122;2022-12-18T06:17:03;4.00;;;3.60;;
2638;SDS011;1329;51.384;7.122;2022-12-18T06:19:33;4.17;;;3.63;;
2638;SDS011;1329;51.384;7.122;2022-12-18T06:22:00;4.67;;;3.70;;
2638;SDS011;1329;51.384;7.122;2022-12-18T06:24:28;4.13;;;3.50;;
2638;SDS011;1329;51.384;7.122;2022-12-18T06:26:56;4.50;;;3.67;;
2638;SDS011;1329;51.384;7.122;2022-12-18T06:29:24;4.13;;;3.40;;
2638;SDS011;1329;51.384;7.122;2022-12-18T06:31:52;3.97;;;3.30;;
2638;SDS011;1329;51.384;7.122;2022-12-18T06:34:19;3.73;;;3.30;;
2638;SDS011;1329;51.384;7.122;2022-12-18T06:36:49;4.27;;;3.33;;
2638;SDS011;1329;51.384;7.122;2022-12-18T06:39:17;4.80;;;4.00;;
2638;SDS011;1329;51.384;7.122;2022-12-18T06:41:44;4.53;;;3.67;;
2638;SDS011;1329;51.384;7.122;2022-12-18T06:44:11;4.93;;;4.10;;
2638;SDS011;1329;51.384;7.122;2022-12-18T06:46:40;5.57;;;4.30;;
2638;SDS011;1329;51.384;7.122;2022-12-18T06:49:07;4.90;;;3.80;;
2638;SDS011;1329;51.384;7.122;2022-12-18T06:51:34;4.97;;;4.00;;
2638;SDS011;1329;51.384;7.122;2022-12-18T06:54:02;5.60;;;4.20;;
2638;SDS011;1329;51.384;7.122;2022-12-18T06:56:30;4.30;;;3.83;;
2638;SDS011;1329;51.384;7.122;2022-12-18T06:58:57;4.30;;;3.80;;
2638;SDS011;1329;51.384;7.122;2022-12-18T07:01:25;4.70;;;3.77;;
2638;SDS011;1329;51.384;7.122;2022-12-18T07:03:54;5.40;;;4.30;;
2638;SDS011;1329;51.384;7.122;2022-12-18T07:06:24;5.70;;;4.20;;
2638;SDS011;1329;51.384;7.122;2022-12-18T07:08:52;6.17;;;4.20;;
2638;SDS011;1329;51.384;7.122;2022-12-18T07:11:21;4.60;;;4.10;;
2638;SDS011;1329;51.384;7.122;2022-12-18T07:13:49;5.27;;;3.97;;
2638;SDS011;1329;51.384;7.122;2022-12-18T07:16:19;5.23;;;4.13;;
2638;SDS011;1329;51.384;7.122;2022-12-18T07:18:47;4.83;;;4.13;;
2638;SDS011;1329;51.384;7.122;2022-12-18T07:21:17;5.93;;;4.40;;
2638;SDS011;1329;51.384;7.122;2022-12-18T07:23:46;5.27;;;4.23;;
2638;SDS011;1329;51.384;7.122;2022-12-18T07:26:14;4.73;;;4.20;;
2638;SDS011;1329;51.384;7.122;2022-12-18T07:28:44;5.63;;;4.57;;
2638;SDS011;1329;51.384;7.122;2022-12-18T07:31:14;5.20;;;4.53;;
2638;SDS011;1329;51.384;7.122;2022-12-18T07:33:44;6.90;;;4.80;;
2638;SDS011;1329;51.384;7.122;2022-12-18T07:36:12;5.83;;;4.27;;
2638;SDS011;1329;51.384;7.122;2022-12-18T07:38:42;6.50;;;4.90;;
2638;SDS011;1329;51.384;7.122;2022-12-18T07:41:17;5.40;;;4.63;;
2638;SDS011;1329;51.384;7.122;2022-12-18T07:43:45;5.40;;;4.90;;
2638;SDS011;1329;51.384;7.122;2022-12-18T07:46:16;5.00;;;4.40;;
2638;SDS011;1329;51.384;7.122;2022-12-18T07:48:47;5.90;;;5.00;;
2638;SDS011;1329;51.384;7.122;2022-12-18T07:51:15;7.17;;;4.43;;
2638;SDS011;1329;51.384;7.122;2022-12-18T07:53:45;6.30;;;5.70;;
2638;SDS011;1329;51.384;7.122;2022-12-18T07:56:13;6.83;;;5.10;;
2638;SDS011;1329;51.384;7.122;2022-12-18T07:58:41;6.03;;;5.03;;
2638;SDS011;1329;51.384;7.122;2022-12-18T08:01:10;6.63;;;5.33;;
2638;SDS011;1329;51.384;7.122;2022-12-18T08:03:43;6.17;;;4.97;;
2638;SDS011;1329;51.384;7.122;2022-12-18T08:06:10;6.50;;;5.07;;
2638;SDS011;1329;51.384;7.122;2022-12-18T08:08:38;6.20;;;5.07;;
2638;SDS011;1329;51.384;7.122;2022-12-18T08:11:08;7.00;;;4.70;;
2638;SDS011;1329;51.384;7.122;2022-12-18T08:13:35;6.90;;;5.77;;
2638;SDS011;1329;51.384;7.122;2022-12-18T08:16:06;6.50;;;5.27;;
2638;SDS011;1329;51.384;7.122;2022-12-18T08:18:44;6.50;;;5.23;;
2638;SDS011;1329;51.384;7.122;2022-12-18T08:21:13;6.53;;;5.50;;
2638;SDS011;1329;51.384;7.122;2022-12-18T08:23:45;6.60;;;4.80;;
2638;SDS011;1329;51.384;7.122;2022-12-18T08:26:15;6.20;;;4.50;;
2638;SDS011;1329;51.384;7.122;2022-12-18T08:28:42;6.73;;;4.83;;
2638;SDS011;1329;51.384;7.122;2022-12-18T08:31:10;4.87;;;4.37;;
2638;SDS011;1329;51.384;7.122;2022-12-18T08:33:38;7.07;;;5.43;;
2638;SDS011;1329;51.384;7.122;2022-12-18T08:36:07;7.07;;;6.20;;
2638;SDS011;1329;51.384;7.122;2022-12-18T08:38:36;11.20;;;7.93;;
2638;SDS011;1329;51.384;7.122;2022-12-18T08:41:04;14.63;;;9.67;;
2638;SDS011;1329;51.384;7.122;2022-12-18T08:43:36;11.03;;;7.03;;
2638;SDS011;1329;51.384;7.122;2022-12-18T08:46:22;7.67;;;6.13;;
2638;SDS011;1329;51.384;7.122;2022-12-18T08:48:52;6.30;;;4.90;;
2638;SDS011;1329;51.384;7.122;2022-12-18T08:51:21;7.40;;;5.70;;
2638;SDS011;1329;51.384;7.122;2022-12-18T08:53:48;5.40;;;4.90;;
2638;SDS011;1329;51.384;7.122;2022-12-18T08:56:15;5.63;;;4.40;;
2638;SDS011;1329;51.384;7.122;2022-12-18T08:58:44;5.10;;;4.30;;
2638;SDS011;1329;51.384;7.122;2022-12-18T09:01:12;6.10;;;4.90;;
2638;SDS011;1329;51.384;7.122;2022-12-18T09:03:40;5.33;;;4.30;;
2638;SDS011;1329;51.384;7.122;2022-12-18T09:06:12;5.43;;;4.37;;
2638;SDS011;1329;51.384;7.122;2022-12-18T09:08:42;5.87;;;4.40;;
2638;SDS011;1329;51.384;7.122;2022-12-18T09:11:13;4.67;;;3.80;;
2638;SDS011;1329;51.384;7.122;2022-12-18T09:13:47;4.83;;;4.00;;
2638;SDS011;1329;51.384;7.122;2022-12-18T09:16:17;5.33;;;4.10;;
2638;SDS011;1329;51.384;7.122;2022-12-18T09:18:45;5.43;;;4.23;;
2638;SDS011;1329;51.384;7.122;2022-12-18T09:21:14;5.30;;;4.10;;
2638;SDS011;1329;51.384;7.122;2022-12-18T09:23:48;6.23;;;5.20;;
2638;SDS011;1329;51.384;7.122;2022-12-18T09:26:16;5.17;;;4.30;;
2638;SDS011;1329;51.384;7.122;2022-12-18T09:28:44;5.83;;;4.27;;
2638;SDS011;1329;51.384;7.122;2022-12-18T09:31:15;4.87;;;4.40;;
2638;SDS011;1329;51.384;7.122;2022-12-18T09:33:45;5.60;;;4.30;;
2638;SDS011;1329;51.384;7.122;2022-12-18T09:36:14;4.70;;;3.90;;
2638;SDS011;1329;51.384;7.122;2022-12-18T09:38:44;4.20;;;3.57;;
2638;SDS011;1329;51.384;7.122;2022-12-18T09:41:17;4.30;;;3.67;;
2638;SDS011;1329;51.384;7.122;2022-12-18T09:44:16;6.03;;;3.97;;
2638;SDS011;1329;51.384;7.122;2022-12-18T09:46:49;4.90;;;3.70;;
2638;SDS011;1329;51.384;7.122;2022-12-18T09:49:29;4.10;;;3.60;;
2638;SDS011;1329;51.384;7.122;2022-12-18T09:52:03;5.47;;;4.10;;
2638;SDS011;1329;51.384;7.122;2022-12-18T09:54:38;5.27;;;4.03;;
2638;SDS011;1329;51.384;7.122;2022-12-18T09:57:10;4.37;;;3.97;;
2638;SDS011;1329;51.384;7.122;2022-12-18T09:59:49;4.50;;;4.03;;
2638;SDS011;1329;51.384;7.122;2022-12-18T10:02:21;4.73;;;4.13;;
2638;SDS011;1329;51.384;7.122;2022-12-18T10:04:59;4.33;;;3.90;;
2638;SDS011;1329;51.384;7.122;2022-12-18T10:07:43;4.60;;;3.50;;
2638;SDS011;1329;51.384;7.122;2022-12-18T10:10:26;4.33;;;3.40;;
2638;SDS011;1329;51.384;7.122;2022-12-18T10:13:02;4.73;;;4.13;;
2638;SDS011;1329;51.384;7.122;2022-12-18T10:15:54;5.23;;;4.13;;
2638;SDS011;1329;51.384;7.122;2022-12-18T10:18:39;4.50;;;3.80;;
2638;SDS011;1329;51.384;7.122;2022-12-18T10:21:30;4.73;;;3.60;;
2638;SDS011;1329;51.384;7.122;2022-12-18T10:24:09;5.27;;;3.70;;
2638;SDS011;1329;51.384;7.122;2022-12-18T10:26:52;4.17;;;3.70;;
2638;SDS011;1329;51.384;7.122;2022-12-18T10:29:22;4.00;;;3.60;;
2638;SDS011;1329;51.384;7.122;2022-12-18T10:31:53;4.13;;;3.73;;
2638;SDS011;1329;51.384;7.122;2022-12-18T10:34:21;8.57;;;3.90;;
2638;SDS011;1329;51.384;7.122;2022-12-18T10:36:50;4.07;;;3.43;;
2638;SDS011;1329;51.384;7.122;2022-12-18T10:39:18;4.93;;;4.27;;
2638;SDS011;1329;51.384;7.122;2022-12-18T10:41:50;4.53;;;3.97;;
2638;SDS011;1329;51.384;7.122;2022-12-18T10:44:18;4.83;;;4.23;;
2638;SDS011;1329;51.384;7.122;2022-12-18T10:46:48;5.00;;;4.00;;
2638;SDS011;1329;51.384;7.122;2022-12-18T10:49:29;4.40;;;4.00;;
2638;SDS011;1329;51.384;7.122;2022-12-18T10:52:06;4.63;;;3.60;;
2638;SDS011;1329;51.384;7.122;2022-12-18T10:54:48;4.80;;;3.97;;
2638;SDS011;1329;51.384;7.122;2022-12-18T10:57:29;5.10;;;3.90;;
2638;SDS011;1329;51.384;7.122;2022-12-18T11:00:18;7.13;;;5.77;;
2638;SDS011;1329;51.384;7.122;2022-12-18T11:02:54;8.27;;;6.13;;
2638;SDS011;1329;51.384;7.122;2022-12-18T11:05:24;6.30;;;5.50;;
2638;SDS011;1329;51.384;7.122;2022-12-18T11:07:58;7.77;;;4.87;;
2638;SDS011;1329;51.384;7.122;2022-12-18T11:10:31;6.30;;;4.43;;
2638;SDS011;1329;51.384;7.122;2022-12-18T11:13:09;5.23;;;4.73;;
2638;SDS011;1329;51.384;7.122;2022-12-18T11:15:45;4.90;;;4.47;;
2638;SDS011;1329;51.384;7.122;2022-12-18T11:18:19;5.03;;;4.07;;
2638;SDS011;1329;51.384;7.122;2022-12-18T11:20:54;4.20;;;3.80;;
2638;SDS011;1329;51.384;7.122;2022-12-18T11:23:27;4.97;;;4.37;;
2638;SDS011;1329;51.384;7.122;2022-12-18T11:25:58;4.43;;;3.90;;
2638;SDS011;1329;51.384;7.122;2022-12-18T11:28:34;5.37;;;4.43;;
2638;SDS011;1329;51.384;7.122;2022-12-18T11:31:12;6.13;;;5.07;;
2638;SDS011;1329;51.384;7.122;2022-12-18T11:33:50;5.87;;;5.13;;
2638;SDS011;1329;51.384;7.122;2022-12-18T11:36:28;5.53;;;4.97;;
2638;SDS011;1329;51.384;7.122;2022-12-18T11:39:09;4.63;;;4.00;;
2638;SDS011;1329;51.384;7.122;2022-12-18T11:41:47;7.57;;;4.40;;
2638;SDS011;1329;51.384;7.122;2022-12-18T11:44:42;4.77;;;4.20;;
2638;SDS011;1329;51.384;7.122;2022-12-18T11:47:18;6.57;;;5.10;;
2638;SDS011;1329;51.384;7.122;2022-12-18T11:49:54;5.30;;;4.73;;
2638;SDS011;1329;51.384;7.122;2022-12-18T11:52:28;6.27;;;4.57;;
2638;SDS011;1329;51.384;7.122;2022-12-18T11:55:08;4.67;;;4.17;;
2638;SDS011;1329;51.384;7.122;2022-12-18T11:57:46;4.90;;;4.13;;
2638;SDS011;1329;51.384;7.122;2022-12-18T12:00:22;7.17;;;4.50;;
2638;SDS011;1329;51.384;7.122;2022-12-18T12:05:57;4.90;;;4.20;;
2638;SDS011;1329;51.384;7.122;2022-12-18T12:08:39;5.03;;;4.53;;
2638;SDS011;1329;51.384;7.122;2022-12-18T12:11:22;5.03;;;4.30;;
2638;SDS011;1329;51.384;7.122;2022-12-18T12:14:09;5.90;;;4.53;;
2638;SDS011;1329;51.384;7.122;2022-12-18T12:16:53;5.10;;;4.60;;
2638;SDS011;1329;51.384;7.122;2022-12-18T12:19:33;5.50;;;4.87;;
2638;SDS011;1329;51.384;7.122;2022-12-18T12:22:13;7.00;;;4.77;;
2638;SDS011;1329;51.384;7.122;2022-12-18T12:24:56;5.53;;;4.83;;
2638;SDS011;1329;51.384;7.122;2022-12-18T12:27:43;5.40;;;4.60;;
2638;SDS011;1329;51.384;7.122;2022-12-18T12:30:18;7.87;;;5.20;;
2638;SDS011;1329;51.384;7.122;2022-12-18T12:32:51;5.33;;;4.70;;
2638;SDS011;1329;51.384;7.122;2022-12-18T12:35:35;5.93;;;4.93;;
2638;SDS011;1329;51.384;7.122;2022-12-18T12:38:15;7.47;;;4.90;;
2638;SDS011;1329;51.384;7.122;2022-12-18T12:40:49;5.10;;;4.53;;
2638;SDS011;1329;51.384;7.122;2022-12-18T12:43:22;6.43;;;5.50;;
2638;SDS011;1329;51.384;7.122;2022-12-18T12:45:58;6.23;;;5.33;;
2638;SDS011;1329;51.384;7.122;2022-12-18T12:48:41;7.60;;;5.00;;
2638;SDS011;1329;51.384;7.122;2022-12-18T12:51:17;5.77;;;5.17;;
2638;SDS011;1329;51.384;7.122;2022-12-18T12:53:49;6.73;;;5.47;;
2638;SDS011;1329;51.384;7.122;2022-12-18T12:56:19;7.07;;;5.90;;
2638;SDS011;1329;51.384;7.122;2022-12-18T12:58:51;7.40;;;5.60;;
2638;SDS011;1329;51.384;7.122;2022-12-18T13:01:32;6.50;;;5.33;;
2638;SDS011;1329;51.384;7.122;2022-12-18T13:04:17;6.47;;;5.30;;
2638;SDS011;1329;51.384;7.122;2022-12-18T13:06:53;6.97;;;5.80;;
2638;SDS011;1329;51.384;7.122;2022-12-18T13:09:31;7.30;;;6.03;;
2638;SDS011;1329;51.384;7.122;2022-12-18T13:12:01;7.50;;;6.27;;
2638;SDS011;1329;51.384;7.122;2022-12-18T13:14:48;6.90;;;5.70;;
2638;SDS011;1329;51.384;7.122;2022-12-18T13:20:09;6.93;;;6.20;;
2638;SDS011;1329;51.384;7.122;2022-12-18T13:22:39;7.87;;;6.80;;
2638;SDS011;1329;51.384;7.122;2022-12-18T13:25:31;7.43;;;6.27;;
2638;SDS011;1329;51.384;7.122;2022-12-18T13:28:12;7.47;;;6.03;;
2638;SDS011;1329;51.384;7.122;2022-12-18T13:30:44;8.47;;;6.53;;
2638;SDS011;1329;51.384;7.122;2022-12-18T13:36:28;8.00;;;6.80;;
2638;SDS011;1329;51.384;7.122;2022-12-18T13:39:15;8.87;;;7.30;;
2638;SDS011;1329;51.384;7.122;2022-12-18T13:45:37;7.73;;;6.93;;
2638;SDS011;1329;51.384;7.122;2022-12-18T13:48:18;8.20;;;6.73;;
2638;SDS011;1329;51.384;7.122;2022-12-18T13:50:49;10.43;;;7.20;;
2638;SDS011;1329;51.384;7.122;2022-12-18T13:53:28;10.03;;;8.03;;
2638;SDS011;1329;51.384;7.122;2022-12-18T13:56:01;10.97;;;8.13;;
2638;SDS011;1329;51.384;7.122;2022-12-18T13:58:31;8.67;;;7.63;;
2638;SDS011;1329;51.384;7.122;2022-12-18T14:00:59;10.27;;;8.07;;
2638;SDS011;1329;51.384;7.122;2022-12-18T14:03:30;9.23;;;7.80;;
2638;SDS011;1329;51.384;7.122;2022-12-18T14:05:59;11.20;;;8.47;;
2638;SDS011;1329;51.384;7.122;2022-12-18T14:08:33;10.47;;;8.63;;
2638;SDS011;1329;51.384;7.122;2022-12-18T14:11:07;11.33;;;8.70;;
2638;SDS011;1329;51.384;7.122;2022-12-18T14:13:48;10.30;;;8.60;;
2638;SDS011;1329;51.384;7.122;2022-12-18T14:16:17;10.13;;;8.80;;
2638;SDS011;1329;51.384;7.122;2022-12-18T14:18:46;21.20;;;18.67;;
2638;SDS011;1329;51.384;7.122;2022-12-18T14:21:25;12.83;;;10.23;;
2638;SDS011;1329;51.384;7.122;2022-12-18T14:24:12;11.93;;;9.50;;
2638;SDS011;1329;51.384;7.122;2022-12-18T14:26:42;11.87;;;9.70;;
2638;SDS011;1329;51.384;7.122;2022-12-18T14:29:22;11.57;;;9.83;;
2638;SDS011;1329;51.384;7.122;2022-12-18T14:32:05;11.23;;;9.70;;
2638;SDS011;1329;51.384;7.122;2022-12-18T14:34:43;13.27;;;10.10;;
2638;SDS011;1329;51.384;7.122;2022-12-18T14:37:15;13.77;;;10.33;;
2638;SDS011;1329;51.384;7.122;2022-12-18T14:39:56;11.13;;;9.90;;
2638;SDS011;1329;51.384;7.122;2022-12-18T14:42:25;13.73;;;10.97;;
2638;SDS011;1329;51.384;7.122;2022-12-18T14:48:08;14.20;;;11.40;;
2638;SDS011;1329;51.384;7.122;2022-12-18T14:50:42;15.57;;;10.50;;
2638;SDS011;1329;51.384;7.122;2022-12-18T14:53:18;12.50;;;10.43;;
2638;SDS011;1329;51.384;7.122;2022-12-18T14:55:49;13.47;;;10.30;;
2638;SDS011;1329;51.384;7.122;2022-12-18T14:58:16;14.73;;;10.37;;
2638;SDS011;1329;51.384;7.122;2022-12-18T15:00:46;14.33;;;11.10;;
2638;SDS011;1329;51.384;7.122;2022-12-18T15:03:14;14.43;;;11.17;;
2638;SDS011;1329;51.384;7.122;2022-12-18T15:05:47;13.23;;;10.50;;
2638;SDS011;1329;51.384;7.122;2022-12-18T15:08:24;15.10;;;11.00;;
2638;SDS011;1329;51.384;7.122;2022-12-18T15:10:57;13.67;;;11.03;;
2638;SDS011;1329;51.384;7.122;2022-12-18T15:13:27;12.77;;;10.30;;
2638;SDS011;1329;51.384;7.122;2022-12-18T15:15:56;14.10;;;11.27;;
2638;SDS011;1329;51.384;7.122;2022-12-18T15:18:29;14.27;;;11.63;;
2638;SDS011;1329;51.384;7.122;2022-12-18T15:20:59;13.60;;;10.80;;
2638;SDS011;1329;51.384;7.122;2022-12-18T15:23:36;13.13;;;11.50;;
2638;SDS011;1329;51.384;7.122;2022-12-18T15:26:13;12.70;;;10.90;;
2638;SDS011;1329;51.384;7.122;2022-12-18T15:28:44;13.87;;;11.47;;
2638;SDS011;1329;51.384;7.122;2022-12-18T15:31:24;14.03;;;11.67;;
2638;SDS011;1329;51.384;7.122;2022-12-18T15:34:09;14.03;;;11.27;;
2638;SDS011;1329;51.384;7.122;2022-12-18T15:36:40;13.00;;;10.47;;
2638;SDS011;1329;51.384;7.122;2022-12-18T15:39:09;13.53;;;11.17;;
2638;SDS011;1329;51.384;7.122;2022-12-18T15:41:38;13.77;;;11.20;;
2638;SDS011;1329;51.384;7.122;2022-12-18T15:44:26;13.80;;;11.53;;
2638;SDS011;1329;51.384;7.122;2022-12-18T15:46:56;16.40;;;11.57;;
2638;SDS011;1329;51.384;7.122;2022-12-18T15:49:24;12.37;;;10.70;;
2638;SDS011;1329;51.384;7.122;2022-12-18T15:51:54;13.07;;;11.47;;
2638;SDS011;1329;51.384;7.122;2022-12-18T15:54:25;14.67;;;11.40;;
2638;SDS011;1329;51.384;7.122;2022-12-18T15:57:10;13.97;;;11.67;;
2638;SDS011;1329;51.384;7.122;2022-12-18T15:59:51;12.93;;;10.60;;
2638;SDS011;1329;51.384;7.122;2022-12-18T16:02:24;14.40;;;11.73;;